createdAt,value
2022-11-13T00:02:34.570Z,0.35
2022-11-13T00:05:21.881Z,0.57
2022-11-13T00:08:09.005Z,0.77
2022-11-13T00:11:01.441Z,0.22
2022-11-13T00:13:50.811Z,0.57
2022-11-13T00:16:38.352Z,0.20
2022-11-13T00:19:25.501Z,0.35
2022-11-13T00:22:13.033Z,0.03
2022-11-13T00:25:00.629Z,0.32
2022-11-13T00:27:47.941Z,1.90
2022-11-13T00:30:36.688Z,0.47
2022-11-13T00:33:45.560Z,0.50
2022-11-13T00:36:31.256Z,0.30
2022-11-13T00:39:18.756Z,0.40
2022-11-13T00:42:05.960Z,1.35
2022-11-13T00:44:53.310Z,0.17
2022-11-13T00:47:41.797Z,2.83
2022-11-13T00:50:29.348Z,1.13
2022-11-13T00:53:18.205Z,0.75
2022-11-13T00:56:05.684Z,0.57
2022-11-13T00:58:55.928Z,0.40
2022-11-13T01:01:43.258Z,0.70
2022-11-13T01:04:31.878Z,2.75
2022-11-13T01:07:18.805Z,0.57
2022-11-13T01:10:06.573Z,0.82
2022-11-13T01:12:53.802Z,1.60
2022-11-13T01:15:41.308Z,6.65
2022-11-13T01:18:28.735Z,0.38
2022-11-13T01:21:19.535Z,0.80
2022-11-13T01:24:07.250Z,0.50
2022-11-13T01:26:54.303Z,0.70
2022-11-13T01:29:41.674Z,0.73
2022-11-13T01:32:29.096Z,0.32
2022-11-13T01:35:16.056Z,0.80
2022-11-13T01:38:05.063Z,0.38
2022-11-13T01:40:52.136Z,0.43
2022-11-13T01:43:40.267Z,0.20
2022-11-13T01:46:28.952Z,0.73
2022-11-13T01:49:36.683Z,1.17
2022-11-13T01:52:24.989Z,1.13
2022-11-13T01:55:14.982Z,1.35
2022-11-13T01:58:02.400Z,1.75
2022-11-13T02:00:49.501Z,0.40
2022-11-13T02:03:37.017Z,1.10
2022-11-13T02:06:28.445Z,0.85
2022-11-13T02:09:16.966Z,0.55
2022-11-13T02:12:07.368Z,0.57
2022-11-13T02:15:14.935Z,1.77
2022-11-13T02:18:02.733Z,0.73
2022-11-13T02:20:56.600Z,0.45
2022-11-13T02:26:32.732Z,3.33
2022-11-13T02:29:19.864Z,1.08
2022-11-13T02:32:07.108Z,0.77
2022-11-13T02:34:54.335Z,1.13
2022-11-13T02:37:41.459Z,0.90
2022-11-13T02:40:29.068Z,0.25
2022-11-13T02:43:17.657Z,0.60
2022-11-13T02:46:04.990Z,1.35
2022-11-13T02:48:52.228Z,0.68
2022-11-13T02:51:39.632Z,0.50
2022-11-13T02:54:27.109Z,0.52
2022-11-13T02:57:14.036Z,0.35
2022-11-13T03:00:02.853Z,0.80
2022-11-13T03:02:50.199Z,0.68
2022-11-13T03:05:37.488Z,1.45
2022-11-13T03:08:26.194Z,0.38
2022-11-13T03:11:13.609Z,3.33
2022-11-13T03:14:01.056Z,0.40
2022-11-13T03:16:49.675Z,0.70
2022-11-13T03:19:37.110Z,1.02
2022-11-13T03:22:24.292Z,0.30
2022-11-13T03:25:11.649Z,1.30
2022-11-13T03:27:58.857Z,0.52
2022-11-13T03:30:45.799Z,1.08
2022-11-13T03:33:34.523Z,1.48
2022-11-13T03:36:21.706Z,0.65
2022-11-13T03:39:09.098Z,0.88
2022-11-13T03:41:56.194Z,1.45
2022-11-13T03:44:43.218Z,0.60
2022-11-13T03:47:30.349Z,1.45
2022-11-13T03:50:19.039Z,1.17
2022-11-13T03:53:06.452Z,0.73
2022-11-13T03:55:53.949Z,1.30
2022-11-13T03:58:43.674Z,0.90
2022-11-13T04:01:33.429Z,1.13
2022-11-13T04:04:20.895Z,0.73
2022-11-13T04:07:09.896Z,0.63
2022-11-13T04:09:57.229Z,3.63
2022-11-13T04:12:44.215Z,1.38
2022-11-13T04:15:31.292Z,0.68
2022-11-13T04:18:18.384Z,1.30
2022-11-13T04:21:06.307Z,0.38
2022-11-13T04:23:54.979Z,1.02
2022-11-13T04:26:41.930Z,1.50
2022-11-13T04:29:29.138Z,0.88
2022-11-13T04:32:16.375Z,1.10
2022-11-13T04:35:03.706Z,2.88
2022-11-13T04:37:50.934Z,1.77
2022-11-13T04:40:39.364Z,1.40
2022-11-13T04:43:25.643Z,0.77
2022-11-13T04:46:12.674Z,0.47
2022-11-13T04:48:59.664Z,1.45
2022-11-13T04:51:46.728Z,0.57
2022-11-13T04:54:33.843Z,0.65
2022-11-13T04:57:32.806Z,0.45
2022-11-13T05:00:20.473Z,0.30
2022-11-13T05:03:07.845Z,1.27
2022-11-13T05:05:54.864Z,0.93
2022-11-13T05:08:44.622Z,1.58
2022-11-13T05:11:31.808Z,0.50
2022-11-13T05:14:20.528Z,0.80
2022-11-13T05:17:07.820Z,1.55
2022-11-13T05:19:55.223Z,2.05
2022-11-13T05:22:42.334Z,1.75
2022-11-13T05:25:29.354Z,1.30
2022-11-13T05:28:16.273Z,1.27
2022-11-13T05:31:09.159Z,0.75
2022-11-13T05:34:00.030Z,0.50
2022-11-13T05:36:49.888Z,0.93
2022-11-13T05:39:36.941Z,1.38
2022-11-13T05:42:24.412Z,1.23
2022-11-13T05:45:12.037Z,1.33
2022-11-13T05:48:00.615Z,0.95
2022-11-13T05:50:48.036Z,0.70
2022-11-13T05:53:35.769Z,0.95
2022-11-13T05:56:23.635Z,0.47
2022-11-13T05:59:11.090Z,1.25
2022-11-13T06:01:58.472Z,3.53
2022-11-13T06:04:47.071Z,0.75
2022-11-13T06:07:34.353Z,1.45
2022-11-13T06:10:21.433Z,2.05
2022-11-13T06:13:08.802Z,0.73
2022-11-13T06:15:56.341Z,1.88
2022-11-13T06:18:44.356Z,1.73
2022-11-13T06:21:34.130Z,2.95
2022-11-13T06:24:21.609Z,1.23
2022-11-13T06:27:08.695Z,1.05
2022-11-13T06:29:56.587Z,2.15
2022-11-13T06:32:43.686Z,1.55
2022-11-13T06:35:31.514Z,3.53
2022-11-13T06:38:20.008Z,1.77
2022-11-13T06:41:07.768Z,0.95
2022-11-13T06:43:59.786Z,1.90
2022-11-13T06:46:50.022Z,0.88
2022-11-13T06:49:37.215Z,1.23
2022-11-13T06:52:25.063Z,0.88
2022-11-13T06:55:13.552Z,3.00
2022-11-13T06:58:00.836Z,2.25
2022-11-13T07:00:47.947Z,4.78
2022-11-13T07:03:35.428Z,2.10
2022-11-13T07:06:23.891Z,1.55
2022-11-13T07:09:11.155Z,2.40
2022-11-13T07:12:00.324Z,2.42
2022-11-13T07:14:47.602Z,0.52
2022-11-13T07:17:35.009Z,1.65
2022-11-13T07:20:22.642Z,3.38
2022-11-13T07:23:10.299Z,0.68
2022-11-13T07:26:03.309Z,2.10
2022-11-13T07:28:51.860Z,5.40
2022-11-13T07:31:38.869Z,3.17
2022-11-13T07:34:28.673Z,1.48
2022-11-13T07:37:16.032Z,1.55
2022-11-13T07:40:03.471Z,2.13
2022-11-13T07:42:57.623Z,2.00
2022-11-13T07:45:46.521Z,4.75
2022-11-13T07:48:33.755Z,2.05
2022-11-13T07:51:20.926Z,1.85
2022-11-13T07:54:08.134Z,2.42
2022-11-13T07:56:55.089Z,0.75
2022-11-13T07:59:42.464Z,2.65
2022-11-13T08:02:31.522Z,1.63
2022-11-13T08:05:18.884Z,1.15
2022-11-13T08:08:06.181Z,1.67
2022-11-13T08:10:53.688Z,1.85
2022-11-13T08:13:41.440Z,2.75
2022-11-13T08:16:28.756Z,2.10
2022-11-13T08:19:17.719Z,4.05
2022-11-13T08:22:05.259Z,7.13
2022-11-13T08:24:53.914Z,2.05
2022-11-13T08:27:41.070Z,2.85
2022-11-13T08:30:34.696Z,2.13
2022-11-13T08:33:21.867Z,6.32
2022-11-13T08:36:11.070Z,1.15
2022-11-13T08:38:58.741Z,2.28
2022-11-13T08:41:45.841Z,1.23
2022-11-13T08:44:33.247Z,4.15
2022-11-13T08:47:20.235Z,4.75
2022-11-13T08:50:07.897Z,6.38
2022-11-13T08:52:57.365Z,2.45
2022-11-13T08:55:44.688Z,3.85
2022-11-13T08:58:32.379Z,8.57
2022-11-13T09:01:23.645Z,2.25
2022-11-13T09:04:10.597Z,5.88
2022-11-13T09:06:58.018Z,4.60
2022-11-13T09:09:46.731Z,7.68
2022-11-13T09:12:34.233Z,1.45
2022-11-13T09:15:24.401Z,11.23
2022-11-13T09:18:12.220Z,1.85
2022-11-13T09:21:02.267Z,4.03
2022-11-13T09:23:49.736Z,2.25
2022-11-13T09:26:39.067Z,1.77
2022-11-13T09:29:28.869Z,1.95
2022-11-13T09:32:18.714Z,5.68
2022-11-13T09:35:06.139Z,3.65
2022-11-13T09:37:53.652Z,3.15
2022-11-13T09:40:43.512Z,2.97
2022-11-13T09:43:35.552Z,2.30
2022-11-13T09:46:26.725Z,2.72
2022-11-13T09:49:16.103Z,5.10
2022-11-13T09:52:07.083Z,4.18
2022-11-13T09:54:54.428Z,1.83
2022-11-13T09:57:44.520Z,3.75
2022-11-13T10:00:35.229Z,10.30
2022-11-13T10:03:54.616Z,1.00
2022-11-13T10:06:45.657Z,2.28
2022-11-13T10:09:35.650Z,3.28
2022-11-13T10:12:23.509Z,1.33
2022-11-13T10:15:12.624Z,5.35
2022-11-13T10:18:05.343Z,4.90
2022-11-13T10:20:54.598Z,2.53
2022-11-13T10:23:44.215Z,2.60
2022-11-13T10:26:31.712Z,2.30
2022-11-13T10:29:20.484Z,1.63
2022-11-13T10:32:23.429Z,5.88
2022-11-13T10:35:28.403Z,3.88
2022-11-13T10:38:21.665Z,4.68
2022-11-13T10:41:10.211Z,2.65
2022-11-13T10:44:07.991Z,3.38
2022-11-13T10:47:05.880Z,3.08
2022-11-13T10:49:52.839Z,1.27
2022-11-13T10:52:48.921Z,1.50
2022-11-13T10:55:39.684Z,2.88
2022-11-13T10:58:26.846Z,8.32
2022-11-13T11:01:21.358Z,5.50
2022-11-13T11:04:09.344Z,1.45
2022-11-13T11:07:19.074Z,1.63
2022-11-13T11:10:04.792Z,1.20
2022-11-13T11:12:57.167Z,3.33
2022-11-13T11:15:47.889Z,2.83
2022-11-13T11:18:38.669Z,2.40
2022-11-13T11:21:27.993Z,3.58
2022-11-13T11:24:18.291Z,5.05
2022-11-13T11:27:08.045Z,6.07
2022-11-13T11:30:00.609Z,4.57
2022-11-13T11:32:50.289Z,2.25
2022-11-13T11:35:42.104Z,2.33
2022-11-13T11:38:36.183Z,5.65
2022-11-13T11:41:27.877Z,4.18
2022-11-13T11:44:18.519Z,4.68
2022-11-13T11:47:12.911Z,4.55
2022-11-13T11:50:00.011Z,5.70
2022-11-13T11:53:08.287Z,1.92
2022-11-13T11:56:10.309Z,9.25
2022-11-13T11:59:07.489Z,1.75
2022-11-13T12:02:03.852Z,4.88
2022-11-13T12:04:59.802Z,1.05
2022-11-13T12:07:52.361Z,0.90
2022-11-13T12:10:44.654Z,3.80
2022-11-13T12:13:41.839Z,5.72
2022-11-13T12:16:33.303Z,3.55
2022-11-13T12:19:30.664Z,2.75
2022-11-13T12:22:26.945Z,2.50
2022-11-13T12:25:22.166Z,2.85
2022-11-13T12:28:15.558Z,1.55
2022-11-13T12:31:07.005Z,3.35
2022-11-13T12:34:01.115Z,1.23
2022-11-13T12:36:49.016Z,1.80
2022-11-13T12:39:41.932Z,1.55
2022-11-13T12:42:32.366Z,4.60
2022-11-13T12:45:22.596Z,3.28
2022-11-13T12:48:10.623Z,2.10
2022-11-13T12:50:59.385Z,3.03
2022-11-13T12:53:48.312Z,2.45
2022-11-13T12:56:37.486Z,3.88
2022-11-13T12:59:33.597Z,1.90
2022-11-13T13:02:48.772Z,3.20
2022-11-13T13:05:51.671Z,13.57
2022-11-13T13:08:47.782Z,4.53
2022-11-13T13:11:41.949Z,2.35
2022-11-13T13:14:37.514Z,2.65
2022-11-13T13:17:25.328Z,2.60
2022-11-13T13:20:33.118Z,3.35
2022-11-13T13:23:27.628Z,3.28
2022-11-13T13:26:16.729Z,2.38
2022-11-13T13:29:27.007Z,1.58
2022-11-13T13:32:27.408Z,3.92
2022-11-13T13:35:17.007Z,3.47
2022-11-13T13:38:06.977Z,4.72
2022-11-13T13:41:11.353Z,5.82
2022-11-13T13:44:05.678Z,2.17
2022-11-13T13:46:57.916Z,4.25
2022-11-13T13:49:45.392Z,2.75
2022-11-13T13:52:34.651Z,2.17
2022-11-13T13:55:26.797Z,3.00
2022-11-13T13:58:16.480Z,3.17
2022-11-13T14:01:18.227Z,1.90
2022-11-13T14:04:14.014Z,3.42
2022-11-13T14:07:02.404Z,3.10
2022-11-13T14:09:49.786Z,4.05
2022-11-13T14:12:37.171Z,3.50
2022-11-13T14:15:25.989Z,5.70
2022-11-13T14:18:14.613Z,2.30
2022-11-13T14:21:03.895Z,2.30
2022-11-13T14:23:51.806Z,4.03
2022-11-13T14:26:39.358Z,3.47
2022-11-13T14:29:32.235Z,3.88
2022-11-13T14:32:22.447Z,3.35
2022-11-13T14:35:19.622Z,16.42
2022-11-13T14:38:19.995Z,6.55
2022-11-13T14:41:07.720Z,3.85
2022-11-13T14:43:55.114Z,2.30
2022-11-13T14:46:44.698Z,4.57
2022-11-13T14:49:32.911Z,2.15
2022-11-13T14:52:24.279Z,2.55
2022-11-13T14:55:24.514Z,3.22
2022-11-13T14:58:13.778Z,11.20
2022-11-13T15:01:01.382Z,2.45
2022-11-13T15:03:50.425Z,4.32
2022-11-13T15:06:39.357Z,8.45
2022-11-13T15:09:27.252Z,7.93
2022-11-13T15:12:15.988Z,4.43
2022-11-13T15:15:03.389Z,6.50
2022-11-13T15:17:52.810Z,8.45
2022-11-13T15:20:42.744Z,3.55
2022-11-13T15:23:30.327Z,8.02
2022-11-13T15:26:18.470Z,7.65
2022-11-13T15:29:08.362Z,2.45
2022-11-13T15:31:55.322Z,7.35
2022-11-13T15:34:42.830Z,10.02
2022-11-13T15:37:30.713Z,6.85
2022-11-13T15:40:19.590Z,4.68
2022-11-13T15:43:07.212Z,8.60
2022-11-13T15:45:56.108Z,9.65
2022-11-13T15:48:43.773Z,14.15
2022-11-13T15:51:33.637Z,20.23
2022-11-13T15:54:26.088Z,8.52
2022-11-13T15:57:18.390Z,16.65
2022-11-13T16:00:08.481Z,11.40
2022-11-13T16:02:59.283Z,15.93
2022-11-13T16:05:47.030Z,14.80
2022-11-13T16:08:34.434Z,12.23
2022-11-13T16:11:22.097Z,11.23
2022-11-13T16:14:09.598Z,8.65
2022-11-13T16:16:56.720Z,6.60
2022-11-13T16:19:45.109Z,6.88
2022-11-13T16:22:35.912Z,11.52
2022-11-13T16:25:24.168Z,6.32
2022-11-13T16:28:14.253Z,10.55
2022-11-13T16:31:01.732Z,13.02
2022-11-13T16:33:49.173Z,15.60
2022-11-13T16:36:39.573Z,33.50
2022-11-13T16:39:28.018Z,20.60
2022-11-13T16:42:16.434Z,33.35
2022-11-13T16:45:05.022Z,28.75
2022-11-13T16:47:53.854Z,55.88
2022-11-13T16:50:42.333Z,27.58
2022-11-13T16:53:32.077Z,40.03
2022-11-13T16:56:22.724Z,13.75
2022-11-13T16:59:11.730Z,11.20
2022-11-13T17:01:59.418Z,8.13
2022-11-13T17:04:47.576Z,6.15
2022-11-13T17:07:35.195Z,10.75
2022-11-13T17:10:31.394Z,11.38
2022-11-13T17:13:19.593Z,10.27
2022-11-13T17:16:07.422Z,12.07
2022-11-13T17:18:54.977Z,10.32
2022-11-13T17:21:44.385Z,6.82
2022-11-13T17:24:32.020Z,3.90
2022-11-13T17:27:21.170Z,9.00
2022-11-13T17:30:09.353Z,4.10
2022-11-13T17:32:56.495Z,5.30
2022-11-13T17:35:46.644Z,17.85
2022-11-13T17:38:34.522Z,13.50
2022-11-13T17:41:22.034Z,10.43
2022-11-13T17:44:11.669Z,11.63
2022-11-13T17:46:59.548Z,5.85
2022-11-13T17:49:47.259Z,9.88
2022-11-13T17:52:40.298Z,11.43
2022-11-13T17:55:28.142Z,11.98
2022-11-13T17:58:15.835Z,10.70
2022-11-13T18:01:06.677Z,19.08
2022-11-13T18:03:56.419Z,7.05
2022-11-13T18:06:43.930Z,22.00
2022-11-13T18:09:32.825Z,9.82
2022-11-13T18:12:19.975Z,8.90
2022-11-13T18:15:07.396Z,6.55
2022-11-13T18:17:56.850Z,8.82
2022-11-13T18:20:44.240Z,7.20
2022-11-13T18:23:31.767Z,8.25
2022-11-13T18:26:20.361Z,5.50
2022-11-13T18:29:08.465Z,4.30
2022-11-13T18:31:55.950Z,9.60
2022-11-13T18:34:44.991Z,7.95
2022-11-13T18:37:34.281Z,5.90
2022-11-13T18:40:22.081Z,18.25
2022-11-13T18:43:10.613Z,2.50
2022-11-13T18:45:59.097Z,7.30
2022-11-13T18:48:47.627Z,13.65
2022-11-13T18:51:36.844Z,8.82
2022-11-13T18:54:24.443Z,7.32
2022-11-13T18:57:11.770Z,15.13
2022-11-13T18:59:59.836Z,5.85
2022-11-13T19:02:48.775Z,4.38
2022-11-13T19:05:37.074Z,37.22
2022-11-13T19:08:26.913Z,8.00
2022-11-13T19:11:16.359Z,5.63
2022-11-13T19:14:05.692Z,2.97
2022-11-13T19:16:53.061Z,8.20
2022-11-13T19:19:42.835Z,9.77
2022-11-13T19:22:30.430Z,7.47
2022-11-13T19:25:24.790Z,6.38
2022-11-13T19:28:12.312Z,5.80
2022-11-13T19:31:01.197Z,4.28
2022-11-13T19:33:49.194Z,4.68
2022-11-13T19:36:36.943Z,10.77
2022-11-13T19:39:25.161Z,6.93
2022-11-13T19:42:14.209Z,5.82
2022-11-13T19:45:01.576Z,4.78
2022-11-13T19:47:49.271Z,5.63
2022-11-13T19:50:36.281Z,14.15
2022-11-13T19:53:23.715Z,3.92
2022-11-13T19:56:12.635Z,4.63
2022-11-13T19:59:02.694Z,5.40
2022-11-13T20:01:50.302Z,4.22
2022-11-13T20:04:37.617Z,7.72
2022-11-13T20:07:25.630Z,18.85
2022-11-13T20:10:13.682Z,5.55
2022-11-13T20:13:01.813Z,19.67
2022-11-13T20:15:56.332Z,6.30
2022-11-13T20:18:44.874Z,11.45
2022-11-13T20:21:32.985Z,4.47
2022-11-13T20:24:20.790Z,6.35
2022-11-13T20:27:10.393Z,10.25
2022-11-13T20:29:58.281Z,4.68
2022-11-13T20:32:47.603Z,3.85
2022-11-13T20:35:34.995Z,1.65
2022-11-13T20:38:22.382Z,3.97
2022-11-13T20:41:11.007Z,5.57
2022-11-13T20:44:02.041Z,3.50
2022-11-13T20:46:50.128Z,4.28
2022-11-13T20:49:38.760Z,3.00
2022-11-13T20:52:25.827Z,3.83
2022-11-13T20:55:13.253Z,6.70
2022-11-13T20:58:00.730Z,6.50
2022-11-13T21:00:48.049Z,11.50
2022-11-13T21:03:41.295Z,4.75
2022-11-13T21:06:30.473Z,15.15
2022-11-13T21:09:20.825Z,7.32
2022-11-13T21:12:09.039Z,9.45
2022-11-13T21:14:56.370Z,5.93
2022-11-13T21:17:43.474Z,5.93
2022-11-13T21:20:30.918Z,4.40
2022-11-13T21:23:19.397Z,2.97
2022-11-13T21:26:07.366Z,3.55
2022-11-13T21:28:55.428Z,1.77
2022-11-13T21:31:48.795Z,5.72
2022-11-13T21:34:35.757Z,3.38
2022-11-13T21:37:22.713Z,3.97
2022-11-13T21:40:13.220Z,5.68
2022-11-13T21:43:00.465Z,7.90
2022-11-13T21:45:47.565Z,6.50
2022-11-13T21:48:34.984Z,5.05
2022-11-13T21:51:22.535Z,4.18
2022-11-13T21:54:10.042Z,6.32
2022-11-13T21:56:58.735Z,3.97
2022-11-13T21:59:46.091Z,7.85
2022-11-13T22:02:34.069Z,7.25
2022-11-13T22:05:21.616Z,7.78
2022-11-13T22:08:08.685Z,13.73
2022-11-13T22:10:55.854Z,3.75
2022-11-13T22:13:44.499Z,5.63
2022-11-13T22:16:32.064Z,4.10
2022-11-13T22:19:26.447Z,3.72
2022-11-13T22:22:14.490Z,24.13
2022-11-13T22:25:01.578Z,1.75
2022-11-13T22:27:48.995Z,7.13
2022-11-13T22:30:37.340Z,3.42
2022-11-13T22:33:27.479Z,2.28
2022-11-13T22:36:16.232Z,4.25
2022-11-13T22:39:04.890Z,4.80
2022-11-13T22:41:52.240Z,4.38
2022-11-13T22:44:54.847Z,6.97
2022-11-13T22:47:44.990Z,4.35
2022-11-13T22:50:32.368Z,2.42
2022-11-13T22:53:19.573Z,2.60
2022-11-13T22:56:07.889Z,6.55
2022-11-13T22:58:55.655Z,3.38
2022-11-13T23:01:43.990Z,1.92
2022-11-13T23:04:32.704Z,3.17
2022-11-13T23:07:19.775Z,0.68
2022-11-13T23:10:07.358Z,1.27
2022-11-13T23:12:54.533Z,2.95
2022-11-13T23:15:41.771Z,6.22
2022-11-13T23:18:30.929Z,1.52
2022-11-13T23:21:20.103Z,5.90
2022-11-13T23:24:08.131Z,2.70
2022-11-13T23:26:54.970Z,5.47
2022-11-13T23:29:45.908Z,4.72
2022-11-13T23:32:35.927Z,2.92
2022-11-13T23:35:23.290Z,4.50
2022-11-13T23:38:11.979Z,4.15
2022-11-13T23:40:59.701Z,2.33
2022-11-13T23:44:07.781Z,5.97
2022-11-13T23:46:54.388Z,3.78
2022-11-13T23:49:41.446Z,5.72
2022-11-13T23:52:31.886Z,2.08
2022-11-13T23:55:21.566Z,3.75
2022-11-13T23:58:11.202Z,12.15
